Time;durP1;ratioP1;P1;durP2;ratioP2;P2;SDS_P1;SDS_P2;PMS_P1;PMS_P2;Temp;Humidity;BMP_temperature;BMP_pressure;BME280_temperature;BME280_humidity;BME280_pressure;Samples;Min_cycle;Max_cycle;Signal;HPM_P1;HPM_P2
2022/10/29 00:04:48;;;;;;;17.88;10.48;;;;;;;13.17;100.00;101968.69;5113577;28;20497;-74
2022/10/29 00:07:13;;;;;;;23.40;11.77;;;;;;;13.18;100.00;101977.56;5094427;28;20462;-74
2022/10/29 00:09:39;;;;;;;23.05;11.00;;;;;;;13.09;100.00;101958.13;5095077;28;20031;-74
2022/10/29 00:12:04;;;;;;;22.92;11.65;;;;;;;13.07;100.00;101951.28;5094486;28;20035;-74
2022/10/29 00:17:51;;;;;;;21.38;11.05;;;;;;;12.95;100.00;101943.81;5113469;28;20058;-74
2022/10/29 00:23:39;;;;;;;23.10;11.80;;;;;;;12.84;100.00;101943.59;5113115;28;20306;-74
2022/10/29 00:26:05;;;;;;;24.08;12.35;;;;;;;12.81;100.00;101955.56;5094793;28;20031;-74
2022/10/29 00:28:30;;;;;;;19.85;10.80;;;;;;;12.71;100.00;101958.59;5113025;28;20035;-74
2022/10/29 00:34:17;;;;;;;21.05;10.00;;;;;;;12.60;100.00;101958.34;5113519;28;20057;-74
2022/10/29 00:36:42;;;;;;;20.67;10.30;;;;;;;12.62;100.00;101965.16;5112119;28;20028;-74
2022/10/29 00:39:13;;;;;;;22.37;11.23;;;;;;;12.62;100.00;101962.50;5112927;28;20733;-74
2022/10/29 00:41:38;;;;;;;20.35;10.07;;;;;;;12.71;100.00;101960.44;5112042;28;20301;-74
2022/10/29 00:44:19;;;;;;;17.27;10.30;;;;;;;12.82;100.00;101959.91;5112808;28;20126;-74
2022/10/29 00:46:55;;;;;;;21.65;10.85;;;;;;;12.85;100.00;101961.34;5112007;28;20040;-74
2022/10/29 00:49:23;;;;;;;23.30;10.65;;;;;;;12.91;100.00;101971.28;5112846;28;20032;-74
2022/10/29 00:51:49;;;;;;;18.90;9.80;;;;;;;12.92;100.00;101975.59;5112689;28;20027;-74
2022/10/29 00:54:15;;;;;;;15.52;9.50;;;;;;;12.88;100.00;101972.50;5111953;28;20483;-74
2022/10/29 00:56:55;;;;;;;18.98;9.95;;;;;;;12.89;100.00;101967.97;5094281;28;20028;-74
2022/10/29 00:59:20;;;;;;;21.27;10.10;;;;;;;12.87;100.00;101967.34;5111709;28;20122;-75
2022/10/29 01:01:47;;;;;;;22.40;9.60;;;;;;;12.95;100.00;101969.84;5112605;28;20054;-74
2022/10/29 01:04:13;;;;;;;16.00;9.98;;;;;;;13.00;100.00;101970.06;5111715;28;20416;-74
2022/10/29 01:06:41;;;;;;;18.42;9.18;;;;;;;12.96;100.00;101958.06;5094180;28;20038;-74
2022/10/29 01:09:06;;;;;;;17.73;9.60;;;;;;;12.99;100.00;101960.34;5112404;28;20027;-74
2022/10/29 01:11:46;;;;;;;20.45;10.23;;;;;;;13.01;100.00;101963.69;5110558;28;20096;-75
2022/10/29 01:14:48;;;;;;;18.30;9.95;;;;;;;12.99;100.00;101955.81;5094100;28;20031;-74
2022/10/29 01:17:24;;;;;;;19.23;9.55;;;;;;;12.89;100.00;101954.53;5111496;28;20066;-74
2022/10/29 01:20:05;;;;;;;21.05;10.57;;;;;;;12.80;100.00;101947.69;5112356;28;20024;-74
2022/10/29 01:22:36;;;;;;;17.35;9.90;;;;;;;12.72;100.00;101940.63;5111539;28;20087;-74
2022/10/29 01:25:23;;;;;;;19.35;11.35;;;;;;;12.67;100.00;101938.56;5112164;28;20524;-75
2022/10/29 01:28:07;;;;;;;20.88;10.88;;;;;;;12.64;100.00;101948.88;5093358;28;20135;-74
2022/10/29 01:30:59;;;;;;;21.02;10.68;;;;;;;12.61;100.00;101943.91;5112235;28;20076;-74
2022/10/29 01:37:20;;;;;;;16.05;9.02;;;;;;;12.41;100.00;101935.75;5112550;28;20120;-75
2022/10/29 01:39:57;;;;;;;20.25;10.43;;;;;;;12.41;100.00;101931.22;5111187;28;20487;-75
2022/10/29 01:42:43;;;;;;;19.98;9.85;;;;;;;12.41;100.00;101933.06;5113713;28;20459;-74
2022/10/29 01:45:23;;;;;;;15.90;10.02;;;;;;;12.38;100.00;101917.38;5096622;28;20035;-74
2022/10/29 01:47:54;;;;;;;59.95;10.85;;;;;;;12.35;100.00;101920.47;5115679;28;20024;-75
2022/10/29 01:50:22;;;;;;;18.52;9.27;;;;;;;12.29;100.00;101916.72;5115040;28;20034;-75
2022/10/29 01:56:09;;;;;;;16.85;7.63;;;;;;;12.20;100.00;101896.47;5115751;28;20092;-74
2022/10/29 01:58:35;;;;;;;15.38;8.02;;;;;;;12.16;100.00;101891.72;5115524;28;20102;-74
2022/10/29 02:01:33;;;;;;;20.05;9.30;;;;;;;12.18;100.00;101893.19;5115406;28;20037;-74
2022/10/29 02:04:23;;;;;;;11.93;7.63;;;;;;;12.09;100.00;101897.84;5114608;28;20055;-74
2022/10/29 02:10:17;;;;;;;17.23;9.10;;;;;;;11.99;100.00;101905.44;5115583;28;20050;-74
2022/10/29 02:12:49;;;;;;;20.48;10.00;;;;;;;11.86;100.00;101896.50;5096886;28;20036;-75
2022/10/29 02:15:21;;;;;;;21.43;10.23;;;;;;;11.88;100.00;101906.00;5114423;28;20372;-74
2022/10/29 02:21:08;;;;;;;16.17;9.70;;;;;;;11.90;100.00;101890.53;5115195;28;20046;-75
2022/10/29 02:23:33;;;;;;;20.65;10.85;;;;;;;11.92;100.00;101899.22;5097053;28;20484;-75
2022/10/29 02:25:59;;;;;;;17.25;10.35;;;;;;;11.87;100.00;101882.91;5114081;28;20039;-74
2022/10/29 02:28:24;;;;;;;13.27;8.03;;;;;;;11.81;100.00;101882.81;5096663;28;20043;-74
2022/10/29 02:30:49;;;;;;;13.33;7.73;;;;;;;11.82;100.00;101882.63;5115033;28;20622;-74
2022/10/29 02:33:15;;;;;;;13.98;7.15;;;;;;;11.79;100.00;101886.53;5096073;28;20286;-74
2022/10/29 02:39:02;;;;;;;14.65;9.18;;;;;;;11.88;100.00;101873.84;5114995;28;20287;-75
2022/10/29 02:41:27;;;;;;;17.45;8.18;;;;;;;11.88;100.00;101867.66;5113627;28;20031;-75
2022/10/29 02:43:53;;;;;;;9.32;6.72;;;;;;;11.87;100.00;101866.81;5113696;28;20051;-75
2022/10/29 02:46:20;;;;;;;58.53;9.88;;;;;;;11.86;100.00;101864.34;5114622;28;20103;-75
2022/10/29 02:48:46;;;;;;;14.60;7.60;;;;;;;11.75;100.00;101865.66;5114031;28;20036;-74
2022/10/29 02:51:12;;;;;;;22.80;9.50;;;;;;;11.69;100.00;101867.28;5096291;28;20070;-75
2022/10/29 02:53:37;;;;;;;12.90;8.82;;;;;;;11.70;100.00;101857.38;5114071;28;20024;-74
2022/10/29 02:56:04;;;;;;;16.80;9.77;;;;;;;11.71;100.00;101862.56;5113728;28;20067;-74
2022/10/29 02:58:30;;;;;;;19.38;11.18;;;;;;;11.67;100.00;101857.78;5114547;28;20035;-74
2022/10/29 03:00:55;;;;;;;16.33;10.10;;;;;;;11.64;100.00;101863.53;5113667;28;20040;-75
2022/10/29 03:03:21;;;;;;;24.17;10.98;;;;;;;11.64;100.00;101858.19;5114378;28;20391;-75
2022/10/29 03:09:07;;;;;;;66.43;13.25;;;;;;;11.73;100.00;101854.31;5114632;28;20050;-75
2022/10/29 03:11:33;;;;;;;84.05;13.32;;;;;;;11.67;100.00;101842.53;5114273;28;20392;-74
2022/10/29 03:13:58;;;;;;;92.55;13.85;;;;;;;11.66;100.00;101851.59;5095483;28;20084;-74
2022/10/29 03:16:23;;;;;;;49.72;11.07;;;;;;;11.66;100.00;101845.41;5114228;28;20042;-74
2022/10/29 03:18:49;;;;;;;37.30;10.52;;;;;;;11.60;100.00;101843.53;5113383;28;20104;-74
2022/10/29 03:21:14;;;;;;;15.00;10.23;;;;;;;11.58;100.00;101850.94;5095884;28;20059;-74
2022/10/29 03:23:39;;;;;;;14.52;9.70;;;;;;;11.58;100.00;101843.72;5095310;28;20276;-74
2022/10/29 03:26:04;;;;;;;25.50;10.30;;;;;;;11.59;100.00;101842.69;5113755;28;20122;-74
2022/10/29 03:28:30;;;;;;;15.63;9.40;;;;;;;11.63;100.00;101835.91;5114003;28;20344;-75
2022/10/29 03:30:56;;;;;;;11.63;9.23;;;;;;;11.63;100.00;101837.78;5113069;28;20280;-74
2022/10/29 03:33:24;;;;;;;17.40;10.27;;;;;;;11.64;100.00;101832.22;5113961;28;20035;-74
2022/10/29 03:35:54;;;;;;;16.65;10.23;;;;;;;11.71;100.00;101840.28;5094859;28;20130;-75
2022/10/29 03:38:20;;;;;;;18.90;12.25;;;;;;;11.78;100.00;101830.47;5112567;28;20038;-74
2022/10/29 03:40:45;;;;;;;18.17;12.93;;;;;;;11.85;100.00;101825.13;5113991;28;20539;-75
2022/10/29 03:43:10;;;;;;;20.03;11.73;;;;;;;11.89;100.00;101826.41;5094939;28;20277;-74
2022/10/29 03:45:35;;;;;;;17.40;11.80;;;;;;;11.97;100.00;101821.72;5113649;28;20297;-74
2022/10/29 03:48:03;;;;;;;19.13;11.97;;;;;;;12.02;100.00;101815.75;5113006;28;20631;-75
2022/10/29 03:50:28;;;;;;;14.48;9.45;;;;;;;12.00;100.00;101821.31;5095380;28;20303;-74
2022/10/29 03:52:53;;;;;;;20.40;10.17;;;;;;;11.98;100.00;101815.31;5095375;28;20035;-74
2022/10/29 03:55:19;;;;;;;12.77;8.23;;;;;;;12.00;100.00;101820.47;5112733;28;20292;-74
2022/10/29 03:57:44;;;;;;;20.17;11.87;;;;;;;12.00;100.00;101812.44;5095230;28;20288;-74
2022/10/29 04:00:10;;;;;;;17.30;11.17;;;;;;;12.06;100.00;101811.63;5112709;28;20342;-75
2022/10/29 04:02:35;;;;;;;19.42;11.88;;;;;;;12.13;100.00;101806.28;5095246;28;20288;-75
2022/10/29 04:05:00;;;;;;;21.90;13.10;;;;;;;12.12;100.00;101799.28;5094347;28;20031;-74
2022/10/29 04:07:25;;;;;;;21.77;13.07;;;;;;;12.09;100.00;101795.16;5094242;28;20307;-74
2022/10/29 04:09:51;;;;;;;18.40;11.80;;;;;;;12.09;100.00;101797.81;5095131;28;20281;-74
2022/10/29 04:12:16;;;;;;;20.13;11.73;;;;;;;12.11;100.00;101798.44;5094494;28;20285;-75
2022/10/29 04:18:03;;;;;;;21.08;12.20;;;;;;;12.08;100.00;101794.31;5113689;28;20050;-74
2022/10/29 04:23:50;;;;;;;17.25;9.93;;;;;;;12.05;100.00;101791.22;5112434;28;20609;-74
2022/10/29 04:26:16;;;;;;;19.35;11.65;;;;;;;11.99;100.00;101778.63;5094826;28;20114;-75
2022/10/29 04:28:41;;;;;;;23.30;12.13;;;;;;;12.02;100.00;101776.38;5112772;28;20023;-75
2022/10/29 04:31:10;;;;;;;26.77;13.38;;;;;;;12.09;100.00;101773.69;5111965;28;20054;-74
2022/10/29 04:33:35;;;;;;;21.70;13.68;;;;;;;12.19;100.00;101774.16;5094483;28;20028;-74
2022/10/29 04:36:01;;;;;;;31.08;14.40;;;;;;;12.19;100.00;101773.34;5111868;28;20131;-74
2022/10/29 04:38:26;;;;;;;25.35;14.57;;;;;;;12.22;100.00;101768.41;5112576;28;20397;-74
2022/10/29 04:40:52;;;;;;;26.17;13.57;;;;;;;12.33;100.00;101775.00;5111985;28;20024;-74
2022/10/29 04:43:17;;;;;;;32.80;14.97;;;;;;;12.33;100.00;101765.13;5112432;28;20066;-74
2022/10/29 04:45:42;;;;;;;24.90;15.25;;;;;;;12.36;100.00;101779.97;5094167;28;20289;-74
2022/10/29 04:48:08;;;;;;;25.67;14.25;;;;;;;12.30;100.00;101775.41;5111623;28;20560;-74
2022/10/29 04:50:36;;;;;;;30.05;15.48;;;;;;;12.29;100.00;101787.19;5113147;28;20110;-74
2022/10/29 04:53:03;;;;;;;34.03;15.90;;;;;;;12.27;100.00;101784.69;5094268;28;20510;-74
2022/10/29 04:55:29;;;;;;;29.02;14.80;;;;;;;12.26;100.00;101782.22;5094536;28;20031;-74
2022/10/29 04:57:55;;;;;;;25.75;14.38;;;;;;;12.26;100.00;101788.41;5112801;28;20058;-75
2022/10/29 05:00:21;;;;;;;23.58;14.82;;;;;;;12.26;100.00;101785.72;5111946;28;20399;-75
2022/10/29 05:02:48;;;;;;;34.83;16.73;;;;;;;12.27;100.00;101781.19;5112839;28;20058;-74
2022/10/29 05:05:14;;;;;;;26.42;15.80;;;;;;;12.26;100.00;101768.81;5111688;28;20043;-74
2022/10/29 05:07:39;;;;;;;30.42;15.68;;;;;;;12.28;100.00;101769.44;5112265;28;20023;-74
2022/10/29 05:10:05;;;;;;;30.00;15.63;;;;;;;12.30;100.00;101770.88;5094165;28;20031;-74
2022/10/29 05:12:30;;;;;;;31.25;17.05;;;;;;;12.34;100.00;101766.75;5111682;28;20304;-75
2022/10/29 05:14:56;;;;;;;33.40;16.73;;;;;;;12.26;100.00;101756.22;5112829;28;20028;-74
2022/10/29 05:17:21;;;;;;;27.43;15.73;;;;;;;12.28;100.00;101772.94;5093477;28;20623;-74
2022/10/29 05:19:46;;;;;;;25.23;16.23;;;;;;;12.25;100.00;101769.84;5094304;28;20271;-75
2022/10/29 05:25:35;;;;;;;28.75;15.18;;;;;;;12.26;100.00;101769.63;5112265;28;20817;-74
2022/10/29 05:28:03;;;;;;;29.92;15.38;;;;;;;12.22;100.00;101762.22;5094005;28;20063;-74
2022/10/29 05:30:29;;;;;;;27.17;15.50;;;;;;;12.22;100.00;101749.63;5093415;28;20483;-74
2022/10/29 05:32:54;;;;;;;21.38;13.48;;;;;;;12.17;100.00;101757.44;5094061;28;20059;-74
2022/10/29 05:35:19;;;;;;;21.95;13.07;;;;;;;12.17;100.00;101760.13;5111341;28;20172;-74
2022/10/29 05:37:52;;;;;;;34.70;15.37;;;;;;;12.18;100.00;101750.25;5093856;28;20585;-75
2022/10/29 05:40:17;;;;;;;33.67;15.32;;;;;;;12.23;100.00;101743.22;5111856;28;20352;-74
2022/10/29 05:42:42;;;;;;;25.75;13.85;;;;;;;12.29;100.00;101746.94;5093664;28;20133;-75
2022/10/29 05:45:08;;;;;;;29.00;15.27;;;;;;;12.27;100.00;101747.16;5111805;28;20026;-74
2022/10/29 05:47:33;;;;;;;26.02;14.10;;;;;;;12.28;100.00;101750.66;5111267;28;20289;-74
2022/10/29 05:49:59;;;;;;;24.80;14.40;;;;;;;12.26;100.00;101750.88;5093693;28;20023;-74
2022/10/29 05:52:24;;;;;;;23.30;14.70;;;;;;;12.26;100.00;101747.38;5111247;28;20277;-74
2022/10/29 05:54:49;;;;;;;26.40;15.30;;;;;;;12.31;100.00;101745.72;5111825;28;20851;-74
2022/10/29 05:57:14;;;;;;;28.40;14.83;;;;;;;12.31;100.00;101744.88;5093686;28;20301;-74
2022/10/29 05:59:40;;;;;;;27.13;16.03;;;;;;;12.31;100.00;101743.03;5111120;28;20384;-74
2022/10/29 06:02:07;;;;;;;29.98;16.25;;;;;;;12.32;100.00;101741.19;5093505;28;20646;-74
2022/10/29 06:04:33;;;;;;;29.35;16.83;;;;;;;12.30;100.00;101735.19;5092972;28;20066;-74
2022/10/29 06:10:20;;;;;;;29.02;15.85;;;;;;;12.36;100.00;101737.88;5112225;28;20074;-74
2022/10/29 06:12:46;;;;;;;25.52;16.30;;;;;;;12.32;100.00;101730.44;5111635;28;20059;-74
2022/10/29 06:15:11;;;;;;;29.40;16.92;;;;;;;12.35;100.00;101730.88;5111768;28;20027;-75
2022/10/29 06:17:41;;;;;;;27.00;15.83;;;;;;;12.40;100.00;101738.28;5092972;28;20031;-74
2022/10/29 06:20:07;;;;;;;29.45;16.77;;;;;;;12.47;100.00;101739.16;5093523;28;20307;-74
2022/10/29 06:22:32;;;;;;;29.70;15.80;;;;;;;12.44;100.00;101749.47;5092331;28;20154;-74
2022/10/29 06:24:57;;;;;;;23.53;14.87;;;;;;;12.41;100.00;101753.38;5111666;28;20062;-74
2022/10/29 06:27:24;;;;;;;30.33;16.63;;;;;;;12.40;100.00;101755.22;5093198;28;20285;-74
2022/10/29 06:29:50;;;;;;;31.55;17.92;;;;;;;12.38;100.00;101748.41;5113028;28;20285;-74
2022/10/29 06:32:15;;;;;;;34.78;18.40;;;;;;;12.46;100.00;101753.59;5115011;28;20019;-74
2022/10/29 06:34:40;;;;;;;33.28;16.90;;;;;;;12.55;100.00;101756.91;5114153;28;20040;-74
2022/10/29 06:37:05;;;;;;;30.93;18.13;;;;;;;12.57;100.00;101746.78;5114976;28;20028;-74
2022/10/29 06:39:31;;;;;;;29.97;16.77;;;;;;;12.58;100.00;101729.66;5114774;28;20302;-74
2022/10/29 06:41:56;;;;;;;32.87;16.93;;;;;;;12.73;100.00;101749.09;5096008;28;20305;-74
2022/10/29 06:44:21;;;;;;;33.97;17.07;;;;;;;12.69;100.00;101745.97;5114693;28;20278;-74
2022/10/29 06:46:46;;;;;;;31.67;17.60;;;;;;;12.71;100.00;101759.19;5095742;28;20827;-74
2022/10/29 06:49:12;;;;;;;30.55;18.13;;;;;;;12.67;100.00;101742.66;5114573;28;20043;-75
2022/10/29 06:51:37;;;;;;;34.97;16.95;;;;;;;12.70;100.00;101758.34;5114596;28;20365;-74
2022/10/29 06:54:02;;;;;;;30.63;17.30;;;;;;;12.69;100.00;101747.81;5113904;28;20126;-74
2022/10/29 06:56:28;;;;;;;32.95;17.10;;;;;;;12.74;100.00;101753.44;5114674;28;20384;-74
2022/10/29 06:58:53;;;;;;;29.83;17.50;;;;;;;12.82;100.00;101760.44;5095623;28;20036;-74
2022/10/29 07:01:18;;;;;;;31.70;19.13;;;;;;;12.85;100.00;101760.03;5114486;28;20265;-74
2022/10/29 07:03:43;;;;;;;32.63;18.40;;;;;;;12.89;100.00;101758.56;5114429;28;20945;-75
2022/10/29 07:06:09;;;;;;;31.70;18.50;;;;;;;12.96;100.00;101759.41;5113611;28;20391;-74
2022/10/29 07:11:56;;;;;;;30.00;18.17;;;;;;;13.03;100.00;101758.38;5114667;28;20046;-74
2022/10/29 07:14:21;;;;;;;36.87;18.80;;;;;;;13.05;100.00;101752.81;5114380;28;20367;-74
2022/10/29 07:16:46;;;;;;;31.13;17.73;;;;;;;13.14;100.00;101756.91;5113442;28;20289;-74
2022/10/29 07:19:11;;;;;;;34.67;18.60;;;;;;;13.20;100.00;101753.41;5114307;28;20277;-74
2022/10/29 07:21:37;;;;;;;30.60;18.10;;;;;;;13.24;100.00;101746.59;5096024;28;20046;-74
2022/10/29 07:24:02;;;;;;;36.30;18.13;;;;;;;13.34;100.00;101735.44;5113359;28;20486;-74
2022/10/29 07:26:27;;;;;;;34.15;17.35;;;;;;;13.45;100.00;101739.31;5095647;28;20308;-75
2022/10/29 07:28:56;;;;;;;27.03;14.87;;;;;;;13.56;100.00;101738.66;5113286;28;20058;-74
2022/10/29 07:31:22;;;;;;;27.60;16.27;;;;;;;13.50;100.00;101726.06;5095998;28;20286;-74
2022/10/29 07:33:47;;;;;;;26.60;15.90;;;;;;;13.49;100.00;101722.56;5095571;28;20050;-74
2022/10/29 07:36:12;;;;;;;32.13;16.58;;;;;;;13.55;100.00;101735.16;5113341;28;20044;-74
2022/10/29 07:38:37;;;;;;;28.27;16.40;;;;;;;13.58;100.00;101726.66;5114061;28;20027;-74
2022/10/29 07:41:03;;;;;;;31.30;16.87;;;;;;;13.69;100.00;101732.44;5098790;28;20289;-74
2022/10/29 07:43:28;;;;;;;28.63;17.45;;;;;;;13.75;100.00;101721.66;5095497;28;20270;-74
2022/10/29 07:45:53;;;;;;;31.90;16.50;;;;;;;13.78;100.00;101723.91;5113307;28;20088;-74
2022/10/29 07:48:19;;;;;;;35.27;18.00;;;;;;;13.86;100.00;101731.72;5113306;28;20296;-74
2022/10/29 07:50:45;;;;;;;41.53;20.67;;;;;;;14.00;100.00;101739.75;5095500;28;20318;-74
2022/10/29 07:53:11;;;;;;;36.50;20.80;;;;;;;14.16;100.00;101723.09;5094761;28;20039;-74
2022/10/29 07:55:36;;;;;;;37.10;19.90;;;;;;;14.25;100.00;101722.63;5113599;28;20093;-75
2022/10/29 07:58:04;;;;;;;30.95;17.17;;;;;;;14.24;100.00;101731.75;5094681;28;20683;-74
2022/10/29 08:00:36;;;;;;;28.45;17.77;;;;;;;14.19;100.00;101734.25;5113359;28;20475;-74
2022/10/29 08:03:01;;;;;;;27.88;17.40;;;;;;;14.22;100.00;101730.31;5095258;28;20035;-74
2022/10/29 08:05:28;;;;;;;38.92;18.40;;;;;;;14.25;100.00;101728.00;5094577;28;20396;-75
2022/10/29 08:07:54;;;;;;;38.83;18.42;;;;;;;14.39;100.00;101731.44;5095186;28;20031;-75
2022/10/29 08:10:20;;;;;;;28.42;15.82;;;;;;;14.49;100.00;101734.53;5112406;28;20048;-74
2022/10/29 08:12:57;;;;;;;32.42;17.42;;;;;;;14.60;100.00;101727.59;5113245;28;20055;-75
2022/10/29 08:15:23;;;;;;;29.80;18.08;;;;;;;14.72;100.00;101728.53;5113336;28;20055;-74
2022/10/29 08:17:49;;;;;;;42.40;18.67;;;;;;;14.74;100.00;101722.91;5094436;28;20035;-74
2022/10/29 08:20:15;;;;;;;39.33;20.35;;;;;;;14.84;100.00;101715.19;5113193;28;20076;-74
2022/10/29 08:22:40;;;;;;;36.28;16.95;;;;;;;14.93;100.00;101721.94;5112380;28;20483;-74
2022/10/29 08:25:06;;;;;;;31.33;18.13;;;;;;;14.98;100.00;101719.41;5094772;28;20027;-74
2022/10/29 08:27:31;;;;;;;30.73;16.35;;;;;;;15.05;100.00;101717.47;5113024;28;20035;-75
2022/10/29 08:29:56;;;;;;;27.25;16.20;;;;;;;15.09;100.00;101702.53;5094255;28;20066;-74
2022/10/29 08:32:22;;;;;;;27.17;16.53;;;;;;;15.08;100.00;101706.25;5112978;28;20494;-75
2022/10/29 08:34:47;;;;;;;33.38;16.33;;;;;;;15.05;100.00;101706.72;5112219;28;20445;-74
2022/10/29 08:37:12;;;;;;;26.42;15.45;;;;;;;15.08;100.00;101711.66;5112876;28;20077;-75
2022/10/29 08:39:38;;;;;;;23.52;15.20;;;;;;;15.12;100.00;101709.34;5112215;28;20042;-75
2022/10/29 08:42:22;;;;;;;25.97;15.50;;;;;;;15.27;100.00;101725.13;5094624;28;20048;-75
2022/10/29 08:48:26;;;;;;;22.88;14.07;;;;;;;15.68;100.00;101725.31;5113070;28;20446;-75
2022/10/29 08:50:59;;;;;;;25.17;13.40;;;;;;;15.82;100.00;101717.88;5112668;28;20032;-74
2022/10/29 08:53:33;;;;;;;28.27;13.43;;;;;;;15.85;100.00;101713.91;5111455;28;20039;-74
2022/10/29 08:55:59;;;;;;;28.13;14.77;;;;;;;15.89;100.00;101712.38;5112591;28;20031;-74
2022/10/29 08:58:42;;;;;;;30.15;15.48;;;;;;;15.93;100.00;101698.25;5111782;28;20043;-74
2022/10/29 09:04:34;;;;;;;26.60;14.35;;;;;;;16.00;100.00;101709.75;5112985;28;20449;-74
2022/10/29 09:07:28;;;;;;;28.40;14.52;;;;;;;16.04;100.00;101710.13;5112444;28;20032;-75
2022/10/29 09:10:11;;;;;;;26.83;14.18;;;;;;;16.10;100.00;101711.91;5108774;28;20210;-74
2022/10/29 09:12:55;;;;;;;26.08;14.70;;;;;;;16.24;100.00;101701.75;5112499;28;20107;-74
2022/10/29 09:19:05;;;;;;;24.17;15.20;;;;;;;16.53;100.00;101708.16;5112998;28;20070;-74
2022/10/29 09:21:46;;;;;;;25.08;14.63;;;;;;;16.71;100.00;101702.69;5055742;28;20046;-74
2022/10/29 09:24:24;;;;;;;28.60;14.43;;;;;;;16.75;100.00;101698.44;5112287;28;20059;-74
2022/10/29 09:26:49;;;;;;;24.08;13.40;;;;;;;16.81;100.00;101710.22;5111946;28;20391;-74
2022/10/29 09:29:25;;;;;;;21.80;13.07;;;;;;;16.83;100.00;101708.09;5111687;28;20036;-74
2022/10/29 09:31:58;;;;;;;24.05;13.48;;;;;;;16.79;100.00;101705.06;5112196;28;20042;-75
2022/10/29 09:34:37;;;;;;;23.33;13.60;;;;;;;16.76;100.00;101692.00;5093364;28;20123;-74
2022/10/29 09:37:12;;;;;;;24.60;13.13;;;;;;;16.72;100.00;101693.53;5112199;28;20036;-74
2022/10/29 09:43:07;;;;;;;20.70;12.52;;;;;;;16.69;100.00;101691.28;5112542;28;20433;-74
2022/10/29 09:46:11;;;;;;;21.90;12.18;;;;;;;16.74;100.00;101699.50;5111340;28;20043;-74
2022/10/29 09:48:53;;;;;;;24.38;13.63;;;;;;;16.83;100.00;101695.41;5093716;28;20441;-74
2022/10/29 09:51:46;;;;;;;23.30;13.23;;;;;;;16.90;100.00;101679.09;5111156;28;20096;-75
2022/10/29 09:54:11;;;;;;;;;;;;;;;17.10;100.00;101681.44;5112477;28;20313;-74
2022/10/29 10:00:21;;;;;;;22.10;11.82;;;;;;;17.48;100.00;101662.78;5112254;28;20101;-74
2022/10/29 10:02:56;;;;;;;24.98;12.18;;;;;;;17.77;100.00;101665.53;5093105;28;20488;-74
2022/10/29 10:05:30;;;;;;;19.92;11.07;;;;;;;18.14;100.00;101666.75;5115094;28;20080;-74
2022/10/29 10:11:18;;;;;;;20.63;9.98;;;;;;;18.74;100.00;101663.44;5115633;28;20039;-74
2022/10/29 10:13:57;;;;;;;18.73;9.90;;;;;;;18.81;100.00;101669.53;5114375;28;20039;-74
2022/10/29 10:19:45;;;;;;;19.83;9.98;;;;;;;18.94;100.00;101670.22;5115477;28;20074;-74
2022/10/29 10:22:19;;;;;;;21.35;9.65;;;;;;;19.11;100.00;101663.72;5115074;28;20031;-74
2022/10/29 10:24:45;;;;;;;20.55;8.90;;;;;;;19.33;100.00;101663.72;5114966;28;20024;-74
2022/10/29 10:27:16;;;;;;;20.42;8.45;;;;;;;19.42;100.00;101667.63;5114220;28;20123;-74
2022/10/29 10:33:23;;;;;;;16.00;8.70;;;;;;;19.39;100.00;101657.28;5115641;28;20540;-74
2022/10/29 10:35:50;;;;;;;16.50;8.65;;;;;;;19.37;100.00;101643.16;5115044;28;20043;-73
2022/10/29 10:38:15;;;;;;;15.05;8.32;;;;;;;19.28;100.00;101647.38;5113998;28;20063;-74
2022/10/29 10:40:41;;;;;;;14.60;7.45;;;;;;;19.26;100.00;101648.69;5114659;28;20104;-74
2022/10/29 10:43:20;;;;;;;14.48;8.18;;;;;;;19.49;100.00;101643.84;5113826;28;20360;-74
2022/10/29 10:45:52;;;;;;;18.92;7.95;;;;;;;19.69;100.00;101656.03;5114521;28;20027;-74
2022/10/29 10:51:54;;;;;;;14.10;7.22;;;;;;;20.00;100.00;101641.72;5114942;28;20084;-74
2022/10/29 10:54:45;;;;;;;15.07;7.10;;;;;;;20.52;100.00;101624.75;5113808;28;20116;-74
2022/10/29 10:57:10;;;;;;;11.88;6.28;;;;;;;20.59;100.00;101632.72;5114580;28;20106;-74
2022/10/29 11:03:14;;;;;;;12.40;6.20;;;;;;;20.34;100.00;101631.41;5114672;28;20039;-74
2022/10/29 11:05:58;;;;;;;14.30;5.75;;;;;;;20.40;100.00;101624.13;5114341;28;20035;-74
2022/10/29 11:08:29;;;;;;;15.57;6.28;;;;;;;20.43;100.00;101631.75;5093397;28;20024;-73
2022/10/29 11:14:25;;;;;;;12.80;5.90;;;;;;;20.47;100.00;101626.63;5114195;28;20042;-74
2022/10/29 11:16:55;;;;;;;15.48;6.05;;;;;;;20.57;98.86;101632.16;5114422;28;20043;-74
2022/10/29 11:19:30;;;;;;;11.85;5.43;;;;;;;20.64;99.50;101619.97;5095381;28;20085;-74
2022/10/29 11:25:22;;;;;;;12.75;5.15;;;;;;;21.11;97.28;101626.50;5114131;28;20573;-74
2022/10/29 11:28:19;;;;;;;16.35;5.38;;;;;;;21.30;96.77;101624.94;5114294;28;20051;-73
2022/10/29 11:30:58;;;;;;;16.98;5.47;;;;;;;21.39;93.51;101617.06;5113214;28;20534;-74
2022/10/29 11:33:40;;;;;;;9.95;5.78;;;;;;;21.43;93.20;101601.88;5113855;28;20141;-74
2022/10/29 11:36:23;;;;;;;11.98;4.97;;;;;;;21.55;92.48;101607.88;5095259;28;20123;-74
2022/10/29 11:46:17;;;;;;;11.32;4.85;;;;;;;21.91;91.97;101603.31;5113886;28;20129;-74
2022/10/29 11:52:33;;;;;;;14.38;5.10;;;;;;;22.54;90.65;101592.94;5114000;28;20156;-75
2022/10/29 11:58:33;;;;;;;16.60;5.28;;;;;;;22.70;83.86;101591.03;5113409;28;20042;-74
2022/10/29 12:01:09;;;;;;;19.33;4.25;;;;;;;22.56;83.23;101596.25;5113384;28;20054;-74
2022/10/29 12:07:20;;;;;;;13.18;4.80;;;;;;;22.28;87.42;101575.84;5113513;28;20534;-74
2022/10/29 12:10:02;;;;;;;13.48;4.55;;;;;;;22.25;86.45;101574.47;5113507;28;20097;-73
2022/10/29 12:12:52;;;;;;;17.20;5.25;;;;;;;22.20;85.29;101574.47;5107010;28;20036;-73
2022/10/29 12:15:38;;;;;;;11.43;4.50;;;;;;;22.27;86.31;101576.13;5113306;28;20031;-74
2022/10/29 12:21:46;;;;;;;12.73;4.70;;;;;;;23.10;82.34;101570.97;5113341;28;20081;-73
2022/10/29 12:24:44;;;;;;;16.67;5.20;;;;;;;22.94;82.92;101564.78;5108755;28;20385;-74
2022/10/29 12:27:27;;;;;;;14.35;5.07;;;;;;;22.70;81.55;101561.03;5111475;28;20053;-74
2022/10/29 12:30:01;;;;;;;13.98;5.30;;;;;;;22.56;83.33;101555.34;5087163;28;20069;-74
2022/10/29 12:32:44;;;;;;;15.43;4.65;;;;;;;22.59;83.84;101551.25;5113164;28;20023;-74
2022/10/29 12:38:40;;;;;;;14.50;4.85;;;;;;;23.01;79.32;101538.03;5113357;28;20557;-74
2022/10/29 12:41:13;;;;;;;14.00;5.38;;;;;;;22.94;79.58;101531.25;5112199;28;20512;-74
2022/10/29 12:43:39;;;;;;;12.15;5.00;;;;;;;23.03;82.86;101529.56;5094451;28;20118;-74
2022/10/29 12:46:29;;;;;;;13.13;5.53;;;;;;;23.13;77.21;101530.34;5111919;28;20039;-73
2022/10/29 12:49:21;;;;;;;13.70;4.53;;;;;;;23.12;79.20;101531.41;5112799;28;20027;-74
2022/10/29 12:55:12;;;;;;;12.63;4.72;;;;;;;23.85;73.98;101524.41;5113540;28;20176;-74
2022/10/29 12:57:37;;;;;;;14.65;5.20;;;;;;;24.59;71.53;101529.44;5111894;28;20196;-74
2022/10/29 13:00:24;;;;;;;12.48;5.13;;;;;;;25.56;72.26;101523.47;5112489;28;20110;-74
2022/10/29 13:09:35;;;;;;;10.50;5.45;;;;;;;24.50;72.30;101522.13;5112506;28;20043;-74
2022/10/29 13:15:35;;;;;;;15.43;5.88;;;;;;;23.92;76.70;101514.75;5112667;28;20395;-73
2022/10/29 13:18:22;;;;;;;14.38;6.03;;;;;;;23.72;77.04;101502.13;5112697;28;20032;-73
2022/10/29 13:20:50;;;;;;;17.45;6.53;;;;;;;23.69;78.06;101499.94;5111798;28;20047;-74
2022/10/29 13:23:21;;;;;;;16.48;5.80;;;;;;;23.71;77.62;101502.41;5093980;28;20024;-74
2022/10/29 13:29:08;;;;;;;20.75;5.90;;;;;;;23.64;77.00;101497.25;5112528;28;20051;-74
2022/10/29 13:34:58;;;;;;;14.57;6.30;;;;;;;22.87;81.74;101493.38;5112413;28;20047;-73